createdAt,value
2023-01-25T00:00:21.510Z,103262.44
2023-01-25T00:02:53.096Z,103252.38
2023-01-25T00:05:25.130Z,103249.53
2023-01-25T00:07:56.609Z,103238.19
2023-01-25T00:10:28.524Z,103226.28
2023-01-25T00:13:00.073Z,103220.16
2023-01-25T00:15:31.866Z,103218.06
2023-01-25T00:18:03.349Z,103208.59
2023-01-25T00:20:35.188Z,103216.06
2023-01-25T00:23:09.784Z,103214.38
2023-01-25T00:25:41.626Z,103208.81
2023-01-25T00:28:13.092Z,103198.19
2023-01-25T00:30:44.907Z,103191.03
2023-01-25T00:33:16.378Z,103191.03
2023-01-25T00:35:48.345Z,103185.66
2023-01-25T00:38:19.844Z,103162.28
2023-01-25T00:40:51.618Z,103153.25
2023-01-25T00:43:23.097Z,103150.28
2023-01-25T00:45:54.944Z,103140.81
2023-01-25T00:48:26.492Z,103137.56
2023-01-25T00:50:58.296Z,103133.97
2023-01-25T00:53:29.883Z,103136.81
2023-01-25T00:56:01.838Z,103133.03
2023-01-25T00:58:33.329Z,103127.53
2023-01-25T01:01:05.061Z,103128.09
2023-01-25T01:03:36.609Z,103121.34
2023-01-25T01:06:08.459Z,103122.31
2023-01-25T01:08:39.938Z,103121.56
2023-01-25T01:11:12.042Z,103135.34
2023-01-25T01:13:43.534Z,103130.94
2023-01-25T01:16:15.439Z,103131.56
2023-01-25T01:18:47.080Z,103142.81
2023-01-25T01:21:18.877Z,103142.09
2023-01-25T01:23:50.415Z,103135.97
2023-01-25T01:26:22.361Z,103140.28
2023-01-25T01:28:53.860Z,103138.19
2023-01-25T01:31:25.764Z,103127.34
2023-01-25T01:33:58.281Z,103129.03
2023-01-25T01:36:29.835Z,103122.84
2023-01-25T01:39:01.367Z,103129.47
2023-01-25T01:41:33.181Z,103132.19
2023-01-25T01:44:04.677Z,103126.72
2023-01-25T01:46:37.699Z,103129.88
2023-01-25T01:49:09.227Z,103122.72
2023-01-25T01:51:41.150Z,103133.34
2023-01-25T01:54:12.649Z,103133.88
2023-01-25T01:56:44.600Z,103120.81
2023-01-25T01:59:16.271Z,103123.25
2023-01-25T02:01:48.203Z,103115.97
2023-01-25T02:04:19.713Z,103120.63
2023-01-25T02:06:51.592Z,103117.78
2023-01-25T02:09:23.078Z,103117.66
2023-01-25T02:11:54.980Z,103115.56
2023-01-25T02:14:26.482Z,103112.59
2023-01-25T02:16:58.440Z,103120.41
2023-01-25T02:19:29.915Z,103123.22
2023-01-25T02:22:08.172Z,103112.31
2023-01-25T02:24:39.803Z,103114.50
2023-01-25T02:27:11.656Z,103108.28
2023-01-25T02:29:43.131Z,103108.50
2023-01-25T02:32:15.296Z,102837.19
2023-01-25T02:34:46.798Z,103100.59
2023-01-25T02:37:18.612Z,103101.75
2023-01-25T02:39:50.142Z,103097.94
2023-01-25T02:42:21.632Z,103097.00
2023-01-25T02:44:53.117Z,103101.19
2023-01-25T02:47:25.021Z,103088.91
2023-01-25T02:49:56.523Z,103090.59
2023-01-25T02:52:28.313Z,103087.78
2023-01-25T02:54:59.816Z,103084.09
2023-01-25T02:57:31.608Z,103088.41
2023-01-25T03:00:03.078Z,103090.28
2023-01-25T03:02:34.868Z,103083.13
2023-01-25T03:05:06.657Z,103083.44
2023-01-25T03:07:38.673Z,103081.31
2023-01-25T03:10:10.175Z,103075.81
2023-01-25T03:12:41.918Z,103077.31
2023-01-25T03:15:13.436Z,103071.53
2023-01-25T03:17:45.260Z,103073.03
2023-01-25T03:20:16.773Z,103073.66
2023-01-25T03:22:48.519Z,103068.59
2023-01-25T03:25:20.017Z,103072.06
2023-01-25T03:27:51.930Z,103067.75
2023-01-25T03:30:23.506Z,103075.00
2023-01-25T03:32:55.410Z,103064.09
2023-01-25T03:35:26.958Z,103064.19
2023-01-25T03:37:58.742Z,103063.34
2023-01-25T03:40:30.215Z,103051.53
2023-01-25T03:43:01.697Z,103058.94
2023-01-25T03:45:33.192Z,103057.88
2023-01-25T03:48:05.107Z,103054.28
2023-01-25T03:50:36.979Z,103057.03
2023-01-25T03:53:17.283Z,103057.53
2023-01-25T03:55:50.407Z,103054.06
2023-01-25T03:58:21.997Z,103049.03
2023-01-25T04:00:54.124Z,103043.47
2023-01-25T04:03:25.681Z,103036.94
2023-01-25T04:05:57.630Z,103035.34
2023-01-25T04:08:29.139Z,103028.47
2023-01-25T04:11:01.122Z,103025.44
2023-01-25T04:13:35.149Z,103024.16
2023-01-25T04:16:07.146Z,103023.25
2023-01-25T04:18:38.715Z,103014.31
2023-01-25T04:21:10.587Z,103011.66
2023-01-25T04:23:42.098Z,103004.63
2023-01-25T04:26:14.685Z,103002.09
2023-01-25T04:28:46.217Z,103000.41
2023-01-25T04:31:18.141Z,103001.06
2023-01-25T04:33:50.727Z,102993.81
2023-01-25T04:36:23.359Z,102996.34
2023-01-25T04:38:54.985Z,102983.59
2023-01-25T04:41:29.575Z,102985.09
2023-01-25T04:44:01.077Z,102984.88
2023-01-25T04:46:32.882Z,102982.06
2023-01-25T04:49:04.381Z,102986.16
2023-01-25T04:51:38.997Z,102979.00
2023-01-25T04:54:10.505Z,102976.38
2023-01-25T04:56:42.311Z,102972.47
2023-01-25T04:59:13.843Z,102969.53
2023-01-25T05:01:45.615Z,102965.94
2023-01-25T05:04:17.126Z,102965.13
2023-01-25T05:06:48.970Z,102959.22
2023-01-25T05:09:20.950Z,102964.47
2023-01-25T05:11:52.703Z,102964.38
2023-01-25T05:14:24.194Z,102957.66
2023-01-25T05:16:56.110Z,102950.38
2023-01-25T05:19:27.622Z,102953.53
2023-01-25T05:21:59.633Z,102955.88
2023-01-25T05:24:31.159Z,102953.97
2023-01-25T05:27:05.872Z,102950.38
2023-01-25T05:29:37.468Z,102949.13
2023-01-25T05:32:09.408Z,102947.25
2023-01-25T05:34:41.034Z,102950.53
2023-01-25T05:37:12.869Z,102947.38
2023-01-25T05:39:44.375Z,102949.88
2023-01-25T05:42:16.132Z,102951.13
2023-01-25T05:44:48.163Z,102950.53
2023-01-25T05:47:20.029Z,102948.09
2023-01-25T05:49:51.506Z,102956.72
2023-01-25T05:52:23.505Z,102949.03
2023-01-25T05:54:54.998Z,102955.03
2023-01-25T05:57:29.080Z,102957.97
2023-01-25T06:00:00.571Z,102954.81
2023-01-25T06:02:33.468Z,102951.25
2023-01-25T06:05:05.047Z,102958.28
2023-01-25T06:07:36.630Z,102950.53
2023-01-25T06:10:08.134Z,102940.22
2023-01-25T06:12:40.439Z,102941.69
2023-01-25T06:15:12.240Z,102938.09
2023-01-25T06:17:44.120Z,102941.69
2023-01-25T06:20:15.599Z,102933.56
2023-01-25T06:22:47.558Z,102925.47
2023-01-25T06:25:19.114Z,102924.75
2023-01-25T06:27:50.899Z,102926.31
2023-01-25T06:30:22.384Z,102924.84
2023-01-25T06:32:54.165Z,102925.47
2023-01-25T06:35:25.627Z,102922.44
2023-01-25T06:37:57.426Z,102931.91
2023-01-25T06:40:28.901Z,102929.06
2023-01-25T06:43:00.680Z,102937.69
2023-01-25T06:45:33.225Z,102935.06
2023-01-25T06:48:05.129Z,102941.56
2023-01-25T06:50:36.611Z,102929.59
2023-01-25T06:53:08.664Z,102919.50
2023-01-25T06:55:40.160Z,102919.59
2023-01-25T06:58:11.894Z,102912.03
2023-01-25T07:00:43.364Z,102901.75
2023-01-25T07:03:15.025Z,102904.38
2023-01-25T07:05:46.507Z,102902.38
2023-01-25T07:08:19.014Z,102896.59
2023-01-25T07:10:50.513Z,102621.19
2023-01-25T07:13:22.409Z,102897.66
2023-01-25T07:15:53.973Z,102890.28
2023-01-25T07:18:25.870Z,102891.56
2023-01-25T07:20:57.345Z,102887.03
2023-01-25T07:23:31.500Z,102888.78
2023-01-25T07:26:03.086Z,102894.47
2023-01-25T07:28:34.986Z,102882.59
2023-01-25T07:31:06.529Z,102883.00
2023-01-25T07:33:38.347Z,102880.91
2023-01-25T07:36:09.865Z,102885.03
2023-01-25T07:38:41.953Z,102874.44
2023-01-25T07:41:13.465Z,102868.31
2023-01-25T07:43:45.379Z,102873.13
2023-01-25T07:46:17.196Z,102870.50
2023-01-25T07:48:48.952Z,102868.53
2023-01-25T07:51:23.451Z,102862.31
2023-01-25T07:53:55.455Z,102863.91
2023-01-25T07:56:26.951Z,102862.34
2023-01-25T07:58:58.922Z,102861.16
2023-01-25T08:01:32.111Z,102853.06
2023-01-25T08:04:03.847Z,102856.97
2023-01-25T08:06:46.466Z,102856.03
2023-01-25T08:09:20.366Z,102858.44
2023-01-25T08:11:53.498Z,102848.56
2023-01-25T08:14:25.345Z,102849.28
2023-01-25T08:16:56.860Z,102846.88
2023-01-25T08:19:28.723Z,102847.72
2023-01-25T08:22:00.199Z,102841.53
2023-01-25T08:24:32.171Z,102835.72
2023-01-25T08:27:03.947Z,102838.16
2023-01-25T08:29:35.615Z,102830.50
2023-01-25T08:32:08.338Z,102828.81
2023-01-25T08:34:40.939Z,102825.63
2023-01-25T08:37:12.684Z,102832.03
2023-01-25T08:39:44.324Z,102829.91
2023-01-25T08:42:16.184Z,102829.53
2023-01-25T08:44:47.649Z,102834.16
2023-01-25T08:47:19.572Z,102832.88
2023-01-25T08:49:52.312Z,102828.28
2023-01-25T08:52:24.310Z,102829.31
2023-01-25T08:54:55.839Z,102822.59
2023-01-25T08:57:27.489Z,102820.53
2023-01-25T08:59:58.975Z,102825.13
2023-01-25T09:02:30.987Z,102817.97
2023-01-25T09:05:02.546Z,102830.91
2023-01-25T09:07:38.798Z,102830.06
2023-01-25T09:10:10.582Z,102827.34
2023-01-25T09:12:42.605Z,102825.75
2023-01-25T09:15:14.068Z,102831.53
2023-01-25T09:17:45.993Z,102823.97
2023-01-25T09:20:17.496Z,102819.13
2023-01-25T09:22:49.444Z,102817.13
2023-01-25T09:25:20.914Z,102823.53
2023-01-25T09:27:52.436Z,102820.13
2023-01-25T09:30:33.988Z,102811.97
2023-01-25T09:33:16.651Z,102815.75
2023-01-25T09:35:48.304Z,102817.34
2023-01-25T09:38:20.266Z,102812.75
2023-01-25T09:40:51.800Z,102805.56
2023-01-25T09:43:23.655Z,102807.16
2023-01-25T09:45:55.150Z,102800.31
2023-01-25T09:48:27.585Z,102795.84
2023-01-25T09:50:59.912Z,102802.16
2023-01-25T09:53:32.432Z,102795.34
2023-01-25T09:56:03.902Z,102797.59
2023-01-25T09:58:35.830Z,102798.44
2023-01-25T10:01:13.923Z,102795.81
2023-01-25T10:03:45.799Z,102798.44
2023-01-25T10:06:17.368Z,102795.38
2023-01-25T10:08:49.256Z,102794.03
2023-01-25T10:11:20.835Z,102787.59
2023-01-25T10:13:52.720Z,102779.91
2023-01-25T10:16:26.091Z,102765.84
2023-01-25T10:18:57.961Z,102769.44
2023-01-25T10:21:29.475Z,102768.50
2023-01-25T10:24:01.330Z,102760.28
2023-01-25T10:26:32.812Z,102763.22
2023-01-25T10:29:04.958Z,102756.16
2023-01-25T10:31:36.539Z,102757.00
2023-01-25T10:34:08.465Z,102746.69
2023-01-25T10:36:43.014Z,102743.50
2023-01-25T10:39:14.777Z,102734.16
2023-01-25T10:41:47.451Z,102733.34
2023-01-25T10:44:22.720Z,102731.72
2023-01-25T10:46:54.238Z,102726.63
2023-01-25T10:49:26.106Z,102726.66
2023-01-25T10:51:57.655Z,102722.53
2023-01-25T10:54:30.302Z,102716.41
2023-01-25T10:57:01.809Z,102715.56
2023-01-25T10:59:33.621Z,102715.28
2023-01-25T11:02:05.161Z,102701.28
2023-01-25T11:04:37.251Z,102701.28
2023-01-25T11:07:08.886Z,102707.22
2023-01-25T11:09:40.710Z,102702.59
2023-01-25T11:12:12.211Z,102695.34
2023-01-25T11:14:43.992Z,102681.41
2023-01-25T11:17:15.465Z,102677.59
2023-01-25T11:19:47.312Z,102680.56
2023-01-25T11:22:18.803Z,102687.28
2023-01-25T11:24:50.690Z,102669.81
2023-01-25T11:27:22.288Z,102664.75
2023-01-25T11:29:53.813Z,102653.22
2023-01-25T11:32:25.344Z,102648.16
2023-01-25T11:34:57.093Z,102644.06
2023-01-25T11:37:28.576Z,102642.06
2023-01-25T11:40:00.515Z,102641.34
2023-01-25T11:42:32.069Z,102630.41
2023-01-25T11:45:04.105Z,102625.31
2023-01-25T11:47:35.604Z,102619.56
2023-01-25T11:50:07.529Z,102618.81
2023-01-25T11:52:39.178Z,102619.66
2023-01-25T11:55:10.981Z,102609.41
2023-01-25T11:57:43.813Z,102602.63
2023-01-25T12:00:16.652Z,102596.03
2023-01-25T12:02:48.434Z,102584.75
2023-01-25T12:05:22.178Z,102585.44
2023-01-25T12:07:53.963Z,102579.59
2023-01-25T12:10:25.990Z,102564.78
2023-01-25T12:12:57.557Z,102560.13
2023-01-25T12:15:29.428Z,102554.16
2023-01-25T12:18:00.951Z,102551.69
2023-01-25T12:20:33.005Z,102546.16
2023-01-25T12:23:04.477Z,102541.09
2023-01-25T12:25:36.287Z,102538.25
2023-01-25T12:28:08.130Z,102521.25
2023-01-25T12:30:41.244Z,102524.16
2023-01-25T12:33:14.968Z,102515.75
2023-01-25T12:35:47.197Z,102516.25
2023-01-25T12:38:19.018Z,102512.41
2023-01-25T12:40:50.538Z,102514.16
2023-01-25T12:43:22.416Z,102513.44
2023-01-25T12:45:53.914Z,102508.63
2023-01-25T12:48:25.771Z,102512.94
2023-01-25T12:50:57.397Z,102510.56
2023-01-25T12:53:29.212Z,102502.28
2023-01-25T12:56:00.776Z,102494.97
2023-01-25T12:58:37.941Z,102487.34
2023-01-25T13:01:09.811Z,102488.53
2023-01-25T13:03:41.843Z,102489.19
2023-01-25T13:06:13.368Z,102483.81
2023-01-25T13:08:45.128Z,102485.16
2023-01-25T13:11:17.189Z,102479.88
2023-01-25T13:13:48.997Z,102482.09
2023-01-25T13:16:20.484Z,102482.13
2023-01-25T13:18:52.541Z,102486.31
2023-01-25T13:21:24.061Z,102479.94
2023-01-25T13:23:55.916Z,102480.19
2023-01-25T13:26:28.429Z,102468.88
2023-01-25T13:29:00.874Z,102459.34
2023-01-25T13:31:46.405Z,102457.06
2023-01-25T13:34:22.709Z,102460.19
2023-01-25T13:36:54.214Z,102458.16
2023-01-25T13:39:26.964Z,102448.50
2023-01-25T13:41:58.530Z,102438.69
2023-01-25T13:44:30.548Z,102433.81
2023-01-25T13:47:02.032Z,102436.78
2023-01-25T13:49:33.798Z,102442.94
2023-01-25T13:52:05.355Z,102440.47
2023-01-25T13:54:37.142Z,102430.94
2023-01-25T13:57:08.928Z,102422.91
2023-01-25T13:59:40.856Z,102420.31
2023-01-25T14:02:12.514Z,102421.38
2023-01-25T14:04:44.529Z,102416.72
2023-01-25T14:07:16.007Z,102415.56
2023-01-25T14:09:47.814Z,102413.91
2023-01-25T14:12:19.314Z,102406.44
2023-01-25T14:14:53.465Z,102402.41
2023-01-25T14:17:24.958Z,102396.19
2023-01-25T14:19:56.490Z,102395.34
2023-01-25T14:22:28.114Z,102394.34
2023-01-25T14:24:59.927Z,102396.31
2023-01-25T14:27:31.423Z,102394.56
2023-01-25T14:30:03.376Z,102389.19
2023-01-25T14:32:36.860Z,102388.03
2023-01-25T14:35:08.701Z,102381.00
2023-01-25T14:37:40.252Z,102382.69
2023-01-25T14:40:12.649Z,102380.16
2023-01-25T14:42:44.231Z,102375.59
2023-01-25T14:45:15.744Z,102366.53
2023-01-25T14:47:58.260Z,102371.97
2023-01-25T14:50:31.025Z,102362.91
2023-01-25T14:53:02.501Z,102361.84
2023-01-25T14:55:34.365Z,102357.53
2023-01-25T14:58:08.412Z,102359.78
2023-01-25T15:00:40.233Z,102357.38
2023-01-25T15:03:11.872Z,102353.41
2023-01-25T15:05:43.713Z,102343.19
2023-01-25T15:08:15.711Z,102332.63
2023-01-25T15:10:47.473Z,102332.63
2023-01-25T15:13:18.967Z,102327.09
2023-01-25T15:15:50.786Z,102332.59
2023-01-25T15:18:22.272Z,102323.38
2023-01-25T15:20:54.032Z,102320.91
2023-01-25T15:23:25.595Z,102322.59
2023-01-25T15:25:57.488Z,102322.09
2023-01-25T15:28:29.022Z,102315.44
2023-01-25T15:31:01.244Z,102312.38
2023-01-25T15:33:32.835Z,102315.16
2023-01-25T15:36:04.806Z,102318.41
2023-01-25T15:38:36.276Z,102308.03
2023-01-25T15:41:08.256Z,102302.28
2023-01-25T15:43:39.835Z,102309.63
2023-01-25T15:46:11.780Z,102307.19
2023-01-25T15:48:43.349Z,102304.47
2023-01-25T15:51:15.152Z,102301.00
2023-01-25T15:53:47.102Z,102291.22
2023-01-25T15:56:19.082Z,102290.47
2023-01-25T15:58:50.606Z,102293.47
2023-01-25T16:01:22.505Z,102293.00
2023-01-25T16:03:54.001Z,102292.03
2023-01-25T16:06:25.802Z,102287.50
2023-01-25T16:08:58.702Z,102280.84
2023-01-25T16:11:30.743Z,102275.13
2023-01-25T16:14:02.224Z,102272.59
2023-01-25T16:16:34.109Z,102265.44
2023-01-25T16:19:05.611Z,102268.44
2023-01-25T16:21:37.421Z,102265.03
2023-01-25T16:24:09.040Z,102260.06
2023-01-25T16:26:41.044Z,102261.25
2023-01-25T16:29:12.975Z,102241.53
2023-01-25T16:31:44.971Z,102248.81
2023-01-25T16:34:16.538Z,102247.47
2023-01-25T16:36:50.821Z,102246.06
2023-01-25T16:39:22.470Z,102247.72
2023-01-25T16:41:54.361Z,102241.63
2023-01-25T16:44:26.268Z,102235.66
2023-01-25T16:46:57.816Z,102233.41
2023-01-25T16:49:30.979Z,102224.97
2023-01-25T16:52:02.460Z,102220.34
2023-01-25T16:54:34.403Z,102218.75
2023-01-25T16:57:14.992Z,102211.53
2023-01-25T16:59:51.269Z,102212.84
2023-01-25T17:02:22.794Z,102205.56
2023-01-25T17:04:54.718Z,102201.63
2023-01-25T17:07:26.222Z,102194.91
2023-01-25T17:09:57.725Z,102195.63
2023-01-25T17:12:29.227Z,102192.88
2023-01-25T17:15:01.270Z,102199.66
2023-01-25T17:17:32.825Z,102197.16
2023-01-25T17:20:05.243Z,102199.06
2023-01-25T17:22:37.990Z,102191.31
2023-01-25T17:25:09.894Z,102187.25
2023-01-25T17:27:41.361Z,102175.94
2023-01-25T17:30:13.116Z,102174.63
2023-01-25T17:32:44.711Z,102168.75
2023-01-25T17:35:16.427Z,102179.28
2023-01-25T17:37:47.913Z,102176.91
2023-01-25T17:40:20.034Z,102177.47
2023-01-25T17:42:51.511Z,102169.97
2023-01-25T17:45:23.350Z,102167.94
2023-01-25T17:47:54.859Z,102168.31
2023-01-25T17:50:26.717Z,102173.09
2023-01-25T17:52:58.273Z,102167.00
2023-01-25T17:55:30.120Z,102151.50
2023-01-25T17:58:01.612Z,102152.69
2023-01-25T18:00:33.628Z,102158.59
2023-01-25T18:03:05.130Z,102151.84
2023-01-25T18:05:37.015Z,102152.56
2023-01-25T18:08:08.509Z,102145.88
2023-01-25T18:10:40.633Z,102143.03
2023-01-25T18:13:12.101Z,102140.88
2023-01-25T18:15:44.037Z,102145.41
2023-01-25T18:18:15.530Z,102132.41
2023-01-25T18:20:47.357Z,102131.81
2023-01-25T18:23:18.831Z,102133.63
2023-01-25T18:25:50.640Z,102133.72
2023-01-25T18:28:22.190Z,102126.34
2023-01-25T18:30:54.364Z,102139.56
2023-01-25T18:33:25.969Z,102136.47
2023-01-25T18:36:00.828Z,102134.22
2023-01-25T18:38:34.039Z,102129.78
2023-01-25T18:41:06.023Z,102121.44
2023-01-25T18:43:37.523Z,102129.91
2023-01-25T18:46:09.405Z,102135.63
2023-01-25T18:48:41.056Z,102131.22
2023-01-25T18:51:13.343Z,102123.06
2023-01-25T18:53:46.931Z,102118.31
2023-01-25T18:56:18.828Z,102115.94
2023-01-25T18:58:51.137Z,102114.47
2023-01-25T19:01:23.159Z,102104.38
2023-01-25T19:03:54.760Z,102093.41
2023-01-25T19:06:26.273Z,102093.41
2023-01-25T19:08:58.252Z,102088.41
2023-01-25T19:11:29.965Z,102094.00
2023-01-25T19:14:01.680Z,102087.31
2023-01-25T19:16:33.578Z,102081.00
2023-01-25T19:19:05.077Z,102079.44
2023-01-25T19:21:36.889Z,102078.03
2023-01-25T19:24:08.399Z,102073.59
2023-01-25T19:26:40.243Z,102078.72
2023-01-25T19:29:11.732Z,102060.50
2023-01-25T19:31:43.597Z,102057.88
2023-01-25T19:34:15.154Z,102064.06
2023-01-25T19:36:50.252Z,102065.97
2023-01-25T19:39:21.808Z,102049.44
2023-01-25T19:41:53.885Z,102054.44
2023-01-25T19:44:25.434Z,102047.63
2023-01-25T19:46:57.116Z,102049.31
2023-01-25T19:49:28.591Z,102044.53
2023-01-25T19:52:00.497Z,102035.84
2023-01-25T19:54:32.162Z,102037.97
2023-01-25T19:57:03.641Z,102030.59
2023-01-25T19:59:35.126Z,102027.63
2023-01-25T20:02:06.955Z,102021.31
2023-01-25T20:04:38.488Z,102023.47
2023-01-25T20:07:10.345Z,102012.59
2023-01-25T20:09:41.841Z,102006.78
2023-01-25T20:12:13.473Z,102003.09
2023-01-25T20:14:44.975Z,102001.75
2023-01-25T20:17:16.944Z,102006.06
2023-01-25T20:19:50.234Z,101995.09
2023-01-25T20:22:22.019Z,102005.94
2023-01-25T20:24:53.603Z,102004.28
2023-01-25T20:27:25.490Z,102006.78
2023-01-25T20:29:57.025Z,101987.72
2023-01-25T20:32:33.067Z,101996.03
2023-01-25T20:35:06.659Z,101995.94
2023-01-25T20:37:38.448Z,101989.63
2023-01-25T20:40:09.917Z,101991.16
2023-01-25T20:42:41.456Z,101993.78
2023-01-25T20:47:46.347Z,101990.31
2023-01-25T20:50:17.880Z,101987.47
2023-01-25T20:52:49.727Z,101987.22
2023-01-25T20:55:21.208Z,101983.66
2023-01-25T20:57:54.320Z,101981.50
2023-01-25T21:00:26.180Z,101986.28
2023-01-25T21:02:57.973Z,101975.63
2023-01-25T21:05:29.521Z,101974.44
2023-01-25T21:08:01.406Z,101974.09
2023-01-25T21:10:32.922Z,101976.72
2023-01-25T21:13:04.506Z,101969.59
2023-01-25T21:15:36.032Z,101974.13
2023-01-25T21:18:07.866Z,101976.16
2023-01-25T21:20:39.417Z,101975.78
2023-01-25T21:23:11.216Z,101969.81
2023-01-25T21:25:42.810Z,101969.00
2023-01-25T21:28:14.312Z,101966.97
2023-01-25T21:30:46.334Z,101964.94
2023-01-25T21:33:17.844Z,101965.75
2023-01-25T21:35:54.378Z,101962.78
2023-01-25T21:38:26.077Z,101954.78
2023-01-25T21:40:58.057Z,101942.38
2023-01-25T21:43:29.631Z,101938.47
2023-01-25T21:46:25.623Z,101940.63
2023-01-25T21:49:15.807Z,101942.78
2023-01-25T21:51:49.761Z,101937.88
2023-01-25T21:54:21.306Z,101936.13
2023-01-25T21:56:53.076Z,101934.56
2023-01-25T21:59:24.618Z,101936.25
2023-01-25T22:01:59.926Z,101933.84
2023-01-25T22:04:35.800Z,101940.75
2023-01-25T22:07:07.692Z,101943.72
2023-01-25T22:09:39.394Z,101937.78
2023-01-25T22:12:13.133Z,101934.19
2023-01-25T22:14:44.807Z,101940.38
2023-01-25T22:17:16.798Z,101934.78
2023-01-25T22:19:48.413Z,101927.88
2023-01-25T22:22:20.317Z,101920.97
2023-01-25T22:24:51.924Z,101919.91
2023-01-25T22:27:24.033Z,101922.63
2023-01-25T22:29:55.604Z,101919.53
2023-01-25T22:32:27.638Z,101918.84
2023-01-25T22:34:59.708Z,101910.00
2023-01-25T22:37:31.586Z,101906.56
2023-01-25T22:40:03.248Z,101904.41
2023-01-25T22:42:35.213Z,101901.66
2023-01-25T22:45:09.506Z,101904.72
2023-01-25T22:47:42.225Z,101900.19
2023-01-25T22:50:13.941Z,101904.81
2023-01-25T22:52:45.536Z,101905.91
2023-01-25T22:55:17.049Z,101894.25
2023-01-25T22:57:48.629Z,101890.44
2023-01-25T23:00:20.826Z,101889.28
2023-01-25T23:02:52.740Z,101885.44
2023-01-25T23:05:24.250Z,101888.44
2023-01-25T23:07:56.057Z,101888.78
2023-01-25T23:10:27.573Z,101882.34
2023-01-25T23:12:59.711Z,101878.06
2023-01-25T23:15:31.231Z,101877.34
2023-01-25T23:18:22.267Z,101868.50
2023-01-25T23:20:54.982Z,101871.38
2023-01-25T23:23:27.037Z,101871.38
2023-01-25T23:26:01.640Z,101863.66
2023-01-25T23:28:33.464Z,101862.09
2023-01-25T23:31:12.225Z,101861.16
2023-01-25T23:33:43.760Z,101866.28
2023-01-25T23:36:15.643Z,101861.22
2023-01-25T23:38:47.266Z,101851.97
2023-01-25T23:41:19.089Z,101849.59
2023-01-25T23:43:50.818Z,101855.19
2023-01-25T23:46:22.705Z,101843.00
2023-01-25T23:48:54.216Z,101845.19
2023-01-25T23:51:26.125Z,101840.50
2023-01-25T23:53:58.364Z,101834.69
2023-01-25T23:56:30.163Z,101839.47
2023-01-25T23:59:01.694Z,101830.63
